createdAt,value
2022-10-02T00:00:50.320Z,101800.50
2022-10-02T00:03:22.659Z,101791.69
2022-10-02T00:06:14.844Z,101809.56
2022-10-02T00:08:41.837Z,101796.44
2022-10-02T00:11:09.692Z,101807.84
2022-10-02T00:13:43.337Z,101818.16
2022-10-02T00:16:34.046Z,101813.13
2022-10-02T00:19:00.919Z,101821.09
2022-10-02T00:21:45.729Z,101809.94
2022-10-02T00:24:15.941Z,101814.72
2022-10-02T00:26:52.763Z,101815.47
2022-10-02T00:29:24.519Z,101825.03
2022-10-02T00:31:53.797Z,101820.38
2022-10-02T00:34:23.224Z,101819.25
2022-10-02T00:37:02.349Z,101815.44
2022-10-02T00:40:13.111Z,101825.28
2022-10-02T00:42:45.564Z,101825.75
2022-10-02T00:45:53.221Z,101811.88
2022-10-02T00:48:41.497Z,101807.34
2022-10-02T00:51:35.910Z,101802.69
2022-10-02T00:54:27.109Z,101798.88
2022-10-02T00:57:24.646Z,101801.47
2022-10-02T00:59:58.236Z,101804.00
2022-10-02T01:02:46.627Z,101804.75
2022-10-02T01:05:13.632Z,101810.03
2022-10-02T01:07:42.941Z,101810.75
2022-10-02T01:10:10.574Z,101806.09
2022-10-02T01:12:38.103Z,101806.81
2022-10-02T01:15:15.337Z,101800.41
2022-10-02T01:17:42.175Z,101815.53
2022-10-02T01:20:17.093Z,101811.84
2022-10-02T01:22:54.969Z,101817.50
2022-10-02T01:25:21.507Z,101814.06
2022-10-02T01:27:48.131Z,101823.00
2022-10-02T01:30:17.269Z,101805.81
2022-10-02T01:32:50.161Z,101798.72
2022-10-02T01:35:17.340Z,101805.09
2022-10-02T01:37:44.797Z,101798.97
2022-10-02T01:40:32.897Z,101802.66
2022-10-02T01:43:07.098Z,101800.06
2022-10-02T01:45:44.279Z,101791.59
2022-10-02T01:48:17.582Z,101795.75
2022-10-02T01:50:59.982Z,101801.75
2022-10-02T01:53:33.850Z,101800.66
2022-10-02T01:56:19.728Z,101801.66
2022-10-02T01:59:11.662Z,101799.91
2022-10-02T02:01:55.942Z,101809.75
2022-10-02T02:04:24.625Z,101812.69
2022-10-02T02:07:14.304Z,101807.44
2022-10-02T02:10:10.113Z,101804.72
2022-10-02T02:12:43.570Z,101806.56
2022-10-02T02:15:22.801Z,101802.50
2022-10-02T02:18:03.565Z,101812.19
2022-10-02T02:20:35.414Z,101807.03
2022-10-02T02:23:08.316Z,101804.72
2022-10-02T02:25:39.015Z,101802.16
2022-10-02T02:28:08.501Z,101798.44
2022-10-02T02:30:37.466Z,101802.75
2022-10-02T02:33:15.737Z,101801.75
2022-10-02T02:35:44.896Z,101801.75
2022-10-02T02:38:19.152Z,101803.97
2022-10-02T02:40:46.688Z,101793.50
2022-10-02T02:43:18.069Z,101800.25
2022-10-02T02:45:54.935Z,101804.53
2022-10-02T02:48:28.213Z,101805.53
2022-10-02T02:50:59.445Z,101801.59
2022-10-02T02:53:37.571Z,101801.06
2022-10-02T02:56:06.057Z,101806.09
2022-10-02T02:58:51.539Z,101792.09
2022-10-02T03:01:18.201Z,101799.72
2022-10-02T03:03:44.767Z,101800.59
2022-10-02T03:06:20.335Z,101801.31
2022-10-02T03:08:50.324Z,101796.75
2022-10-02T03:11:34.939Z,101784.13
2022-10-02T03:14:09.803Z,101794.22
2022-10-02T03:16:54.869Z,101797.88
2022-10-02T03:19:31.832Z,101808.56
2022-10-02T03:22:04.331Z,101795.66
2022-10-02T03:24:41.342Z,101810.75
2022-10-02T03:27:30.282Z,101806.09
2022-10-02T03:30:05.583Z,101815.63
2022-10-02T03:32:33.334Z,101835.84
2022-10-02T03:35:00.858Z,101839.91
2022-10-02T03:37:27.955Z,101821.22
2022-10-02T03:39:59.113Z,101809.78
2022-10-02T03:42:27.635Z,101819.34
2022-10-02T03:44:54.134Z,101811.47
2022-10-02T03:47:20.655Z,101818.63
2022-10-02T03:49:47.157Z,101816.63
2022-10-02T03:52:18.292Z,101819.19
2022-10-02T03:54:44.880Z,101808.78
2022-10-02T03:57:18.652Z,101815.44
2022-10-02T04:00:00.328Z,101818.53
2022-10-02T04:02:47.556Z,101831.44
2022-10-02T04:05:30.933Z,101847.28
2022-10-02T04:08:04.020Z,101832.31
2022-10-02T04:10:43.135Z,101824.94
2022-10-02T04:13:23.963Z,101844.22
2022-10-02T04:16:02.621Z,101849.72
2022-10-02T04:18:41.739Z,101858.16
2022-10-02T04:21:24.469Z,101857.91
2022-10-02T04:24:09.693Z,101861.19
2022-10-02T04:26:40.968Z,101852.66
2022-10-02T04:29:22.237Z,101833.59
2022-10-02T04:31:53.203Z,101824.06
2022-10-02T04:34:20.008Z,101844.84
2022-10-02T04:37:06.315Z,101840.56
2022-10-02T04:39:41.545Z,101840.81
2022-10-02T04:42:28.680Z,101845.50
2022-10-02T04:45:28.358Z,101850.19
2022-10-02T04:48:36.397Z,101837.91
2022-10-02T04:51:05.873Z,101845.03
2022-10-02T04:53:44.491Z,101844.03
2022-10-02T04:56:58.696Z,101850.44
2022-10-02T04:59:27.971Z,101844.56
2022-10-02T05:02:00.223Z,101849.25
2022-10-02T05:04:55.353Z,101846.63
2022-10-02T05:07:36.468Z,101843.50
2022-10-02T05:10:15.197Z,101842.78
2022-10-02T05:12:47.978Z,101849.94
2022-10-02T05:15:20.125Z,101854.59
2022-10-02T05:18:08.219Z,101860.13
2022-10-02T05:20:51.378Z,101858.44
2022-10-02T05:23:38.131Z,101867.41
2022-10-02T05:26:23.395Z,101870.34
2022-10-02T05:29:08.165Z,101864.94
2022-10-02T05:31:52.064Z,101867.41
2022-10-02T05:34:42.586Z,101872.81
2022-10-02T05:37:33.247Z,101878.22
2022-10-02T05:40:04.411Z,101876.34
2022-10-02T05:42:43.148Z,101879.78
2022-10-02T05:45:35.718Z,101884.34
2022-10-02T05:48:12.697Z,101884.06
2022-10-02T05:50:41.206Z,101887.97
2022-10-02T05:53:34.266Z,101885.00
2022-10-02T05:56:07.414Z,101887.47
2022-10-02T05:58:38.336Z,101891.84
2022-10-02T06:01:17.923Z,101889.88
2022-10-02T06:04:29.664Z,101890.34
2022-10-02T06:06:59.263Z,101906.19
2022-10-02T06:09:40.708Z,101915.88
2022-10-02T06:12:12.505Z,101922.97
2022-10-02T06:14:41.453Z,101913.16
2022-10-02T06:17:13.264Z,101908.78
2022-10-02T06:19:54.226Z,101917.31
2022-10-02T06:22:28.617Z,101904.25
2022-10-02T06:25:05.079Z,101918.25
2022-10-02T06:27:56.534Z,101926.81
2022-10-02T06:30:23.409Z,101927.00
2022-10-02T06:33:10.215Z,101918.38
2022-10-02T06:36:04.706Z,101929.09
2022-10-02T06:38:48.848Z,101918.25
2022-10-02T06:41:24.978Z,101928.97
2022-10-02T06:43:54.641Z,101930.13
2022-10-02T06:47:14.651Z,101934.00
2022-10-02T06:49:53.596Z,101935.59
2022-10-02T06:52:53.849Z,101934.34
2022-10-02T06:55:23.318Z,101939.47
2022-10-02T06:57:55.884Z,101947.47
2022-10-02T07:00:22.557Z,101950.16
2022-10-02T07:03:09.399Z,101943.91
2022-10-02T07:05:44.930Z,101950.41
2022-10-02T07:08:27.367Z,101956.56
2022-10-02T07:11:20.095Z,101950.88
2022-10-02T07:14:17.588Z,101947.63
2022-10-02T07:17:09.522Z,101955.47
2022-10-02T07:19:42.805Z,101955.47
2022-10-02T07:22:43.839Z,101956.19
2022-10-02T07:25:23.262Z,101962.63
2022-10-02T07:28:11.510Z,101964.44
2022-10-02T07:30:58.984Z,101957.94
2022-10-02T07:33:37.642Z,101964.78
2022-10-02T07:36:10.779Z,101961.78
2022-10-02T07:38:44.336Z,101973.06
2022-10-02T07:41:22.951Z,101971.41
2022-10-02T07:44:05.337Z,101984.13
2022-10-02T07:46:54.837Z,101995.25
2022-10-02T07:49:27.587Z,101986.88
2022-10-02T07:51:54.202Z,101996.16
2022-10-02T07:54:52.335Z,102004.34
2022-10-02T07:57:52.380Z,102002.94
2022-10-02T08:00:20.588Z,102006.13
2022-10-02T08:02:47.122Z,102006.13
2022-10-02T08:05:18.516Z,102007.69
2022-10-02T08:07:48.544Z,102012.25
2022-10-02T08:10:16.439Z,102014.63
2022-10-02T08:12:50.121Z,102017.56
2022-10-02T08:15:19.091Z,102008.84
2022-10-02T08:17:53.188Z,102008.25
2022-10-02T08:20:29.529Z,102000.78
2022-10-02T08:23:00.984Z,102021.50
2022-10-02T08:25:32.298Z,102014.38
2022-10-02T08:28:03.377Z,102018.94
2022-10-02T08:30:30.215Z,102009.94
2022-10-02T08:32:56.808Z,102012.38
2022-10-02T08:35:32.029Z,102008.50
2022-10-02T08:38:20.345Z,102028.50
2022-10-02T08:41:04.309Z,102018.41
2022-10-02T08:43:37.267Z,102022.69
2022-10-02T08:46:24.044Z,102009.97
2022-10-02T08:49:24.173Z,102000.13
2022-10-02T08:52:18.010Z,102002.53
2022-10-02T08:55:02.780Z,101992.81
2022-10-02T08:57:38.903Z,101997.97
2022-10-02T09:00:22.147Z,101990.53
2022-10-02T09:02:54.653Z,101989.38
2022-10-02T09:05:59.807Z,101996.78
2022-10-02T09:08:46.837Z,101999.88
2022-10-02T09:11:47.285Z,101998.75
2022-10-02T09:14:48.541Z,101997.75
2022-10-02T09:17:33.526Z,101995.28
2022-10-02T09:20:29.087Z,101998.00
2022-10-02T09:23:14.299Z,101998.47
2022-10-02T09:25:43.879Z,101998.22
2022-10-02T09:28:31.771Z,101995.66
2022-10-02T09:31:40.442Z,101993.63
2022-10-02T09:34:39.918Z,101998.78
2022-10-02T09:37:24.884Z,101990.03
2022-10-02T09:40:15.515Z,101992.16
2022-10-02T09:42:56.494Z,101993.41
2022-10-02T09:45:36.666Z,101991.13
2022-10-02T09:48:45.432Z,101980.47
2022-10-02T09:51:50.091Z,101989.44
2022-10-02T09:54:44.469Z,101980.03
2022-10-02T09:57:48.114Z,101979.13
2022-10-02T10:00:37.899Z,101977.81
2022-10-02T10:03:19.585Z,101975.63
2022-10-02T10:06:01.255Z,101974.97
2022-10-02T10:08:46.254Z,101984.25
2022-10-02T10:11:42.679Z,101983.78
2022-10-02T10:14:18.309Z,101974.22
2022-10-02T10:16:57.120Z,101975.38
2022-10-02T10:20:01.816Z,101975.94
2022-10-02T10:22:40.208Z,101971.91
2022-10-02T10:25:28.276Z,101968.56
2022-10-02T10:28:13.493Z,101960.94
2022-10-02T10:31:27.358Z,101953.47
2022-10-02T10:33:56.878Z,101944.69
2022-10-02T10:36:47.986Z,101952.56
2022-10-02T10:39:20.990Z,101949.97
2022-10-02T10:42:24.229Z,101948.84
2022-10-02T10:45:24.992Z,101943.78
2022-10-02T10:48:15.872Z,101943.00
2022-10-02T10:51:17.010Z,101932.56
2022-10-02T10:53:49.385Z,101942.81
2022-10-02T10:56:40.376Z,101935.50
2022-10-02T10:59:23.063Z,101928.91
2022-10-02T11:02:27.674Z,101939.16
2022-10-02T11:05:16.839Z,101942.91
2022-10-02T11:07:53.709Z,101942.88
2022-10-02T11:11:07.852Z,101939.13
2022-10-02T11:13:56.808Z,101942.19
2022-10-02T11:16:26.343Z,101933.16
2022-10-02T11:19:21.237Z,101921.09
2022-10-02T11:21:53.094Z,101927.41
2022-10-02T11:24:35.831Z,101928.59
2022-10-02T11:27:31.176Z,101924.69
2022-10-02T11:29:57.645Z,101920.25
2022-10-02T11:32:46.162Z,101916.31
2022-10-02T11:35:23.478Z,101905.59
2022-10-02T11:38:04.098Z,101904.88
2022-10-02T11:41:00.082Z,101900.06
2022-10-02T11:43:46.260Z,101894.25
2022-10-02T11:46:48.577Z,101887.94
2022-10-02T11:49:59.091Z,101887.41
2022-10-02T11:52:35.040Z,101888.47
2022-10-02T11:55:11.526Z,101885.03
2022-10-02T11:58:22.740Z,101891.69
2022-10-02T12:01:20.033Z,101878.97
2022-10-02T12:04:10.662Z,101871.63
2022-10-02T12:06:55.212Z,101875.28
2022-10-02T12:09:49.204Z,101862.28
2022-10-02T12:12:28.130Z,101872.97
2022-10-02T12:15:07.512Z,101871.94
2022-10-02T12:18:05.702Z,101867.13
2022-10-02T12:20:50.844Z,101878.56
2022-10-02T12:23:56.139Z,101873.22
2022-10-02T12:26:59.858Z,101859.31
2022-10-02T12:29:59.037Z,101862.41
2022-10-02T12:33:19.972Z,101852.22
2022-10-02T12:35:46.429Z,101851.38
2022-10-02T12:38:58.597Z,101852.28
2022-10-02T12:41:52.670Z,101848.41
2022-10-02T12:44:33.625Z,101843.66
2022-10-02T12:47:23.168Z,101843.81
2022-10-02T12:49:54.705Z,101844.34
2022-10-02T12:52:40.614Z,101834.47
2022-10-02T12:55:07.141Z,101839.91
2022-10-02T12:58:11.174Z,101836.84
2022-10-02T13:00:52.984Z,101826.69
2022-10-02T13:03:46.993Z,101831.00
2022-10-02T13:06:23.790Z,101824.50
2022-10-02T13:08:50.273Z,101830.56
2022-10-02T13:11:38.585Z,101823.69
2022-10-02T13:14:20.839Z,101820.75
2022-10-02T13:17:09.729Z,101805.56
2022-10-02T13:19:58.051Z,101815.75
2022-10-02T13:22:39.458Z,101819.81
2022-10-02T13:25:27.292Z,101806.06
2022-10-02T13:28:02.920Z,101802.00
2022-10-02T13:30:35.652Z,101807.94
2022-10-02T13:33:21.604Z,101806.16
2022-10-02T13:36:03.400Z,101794.59
2022-10-02T13:38:43.774Z,101803.06
2022-10-02T13:41:29.953Z,101790.81
2022-10-02T13:44:22.204Z,101788.94
2022-10-02T13:47:00.162Z,101784.66
2022-10-02T13:49:32.717Z,101777.84
2022-10-02T13:52:25.686Z,101783.81
2022-10-02T13:55:02.419Z,101770.38
2022-10-02T13:57:50.070Z,101772.75
2022-10-02T14:00:37.962Z,101774.47
2022-10-02T14:03:11.332Z,101769.03
2022-10-02T14:05:48.911Z,101763.75
2022-10-02T14:08:31.912Z,101758.66
2022-10-02T14:11:29.042Z,101759.66
2022-10-02T14:14:20.202Z,101759.16
2022-10-02T14:17:04.959Z,101760.50
2022-10-02T14:20:00.874Z,101748.75
2022-10-02T14:23:05.052Z,101757.78
2022-10-02T14:25:34.670Z,101761.44
2022-10-02T14:28:10.235Z,101759.84
2022-10-02T14:30:42.464Z,101756.94
2022-10-02T14:33:16.741Z,101752.13
2022-10-02T14:36:12.133Z,101754.28
2022-10-02T14:38:49.709Z,101754.78
2022-10-02T14:41:35.068Z,101754.28
2022-10-02T14:44:28.758Z,101756.03
2022-10-02T14:47:16.156Z,101750.91
2022-10-02T14:50:01.427Z,101748.66
2022-10-02T14:52:36.818Z,101747.75
2022-10-02T14:55:25.123Z,101747.38
2022-10-02T14:58:30.185Z,101743.97
2022-10-02T15:01:11.124Z,101742.56
2022-10-02T15:04:09.754Z,101735.13
2022-10-02T15:06:56.311Z,101732.22
2022-10-02T15:10:01.747Z,101733.72
2022-10-02T15:12:53.112Z,101734.00
2022-10-02T15:15:27.847Z,101734.34
2022-10-02T15:18:24.587Z,101723.78
2022-10-02T15:21:00.727Z,101729.53
2022-10-02T15:23:33.374Z,101722.22
2022-10-02T15:26:07.559Z,101714.22
2022-10-02T15:29:02.523Z,101726.66
2022-10-02T15:31:44.463Z,101714.22
2022-10-02T15:34:32.206Z,101714.22
2022-10-02T15:37:08.478Z,101705.66
2022-10-02T15:39:44.283Z,101708.72
2022-10-02T15:42:12.393Z,101717.88
2022-10-02T15:44:57.021Z,101710.56
2022-10-02T15:47:38.192Z,101710.56
2022-10-02T15:50:28.847Z,101705.31
2022-10-02T15:53:05.062Z,101712.75
2022-10-02T15:55:34.519Z,101702.88
2022-10-02T15:58:13.287Z,101705.38
2022-10-02T16:01:06.077Z,101703.84
2022-10-02T16:04:02.195Z,101690.56
2022-10-02T16:06:53.235Z,101692.56
2022-10-02T16:09:38.285Z,101696.16
2022-10-02T16:12:29.554Z,101694.81
2022-10-02T16:15:19.833Z,101700.66
2022-10-02T16:18:31.244Z,101694.19
2022-10-02T16:21:27.837Z,101687.91
2022-10-02T16:24:35.306Z,101679.91
2022-10-02T16:27:23.749Z,101679.91
2022-10-02T16:30:07.749Z,101677.03
2022-10-02T16:33:02.328Z,101675.34
2022-10-02T16:35:43.753Z,101674.66
2022-10-02T16:38:25.343Z,101675.09
2022-10-02T16:41:37.143Z,101674.25
2022-10-02T16:44:15.546Z,101665.41
2022-10-02T16:46:51.784Z,101659.97
2022-10-02T16:49:37.555Z,101677.28
2022-10-02T16:52:23.822Z,101675.75
2022-10-02T16:55:01.016Z,101668.75
2022-10-02T16:57:49.831Z,101666.03
2022-10-02T17:00:22.870Z,101662.31
2022-10-02T17:02:54.352Z,101666.03
2022-10-02T17:05:37.507Z,101662.63
2022-10-02T17:08:09.652Z,101659.75
2022-10-02T17:11:05.714Z,101660.44
2022-10-02T17:14:11.297Z,101658.44
2022-10-02T17:16:56.083Z,101672.84
2022-10-02T17:19:27.870Z,101679.47
2022-10-02T17:22:05.104Z,101664.00
2022-10-02T17:24:56.092Z,101671.47
2022-10-02T17:27:35.357Z,101668.03
2022-10-02T17:30:04.839Z,101675.19
2022-10-02T17:32:46.367Z,101678.06
2022-10-02T17:35:34.272Z,101660.94
2022-10-02T17:38:12.733Z,101674.66
2022-10-02T17:40:54.628Z,101674.09
2022-10-02T17:43:53.279Z,101670.69
2022-10-02T17:46:19.796Z,101664.41
2022-10-02T17:48:54.489Z,101667.28
2022-10-02T17:51:51.356Z,101666.59
2022-10-02T17:54:58.025Z,101671.00
2022-10-02T17:57:42.205Z,101670.00
2022-10-02T18:00:13.995Z,101671.84
2022-10-02T18:02:50.583Z,101662.03
2022-10-02T18:05:38.469Z,101665.59
2022-10-02T18:08:40.286Z,101658.59
2022-10-02T18:11:09.900Z,101662.31
2022-10-02T18:13:36.829Z,101665.22
2022-10-02T18:16:26.653Z,101661.78
2022-10-02T18:19:16.161Z,101668.22
2022-10-02T18:22:04.729Z,101653.94
2022-10-02T18:24:51.825Z,101653.94
2022-10-02T18:27:49.115Z,101660.22
2022-10-02T18:30:23.113Z,101653.94
2022-10-02T18:32:52.505Z,101654.63
2022-10-02T18:35:40.890Z,101659.06
2022-10-02T18:38:24.727Z,101655.34
2022-10-02T18:41:13.313Z,101647.34
2022-10-02T18:43:40.002Z,101651.06
2022-10-02T18:46:32.266Z,101649.34
2022-10-02T18:49:24.094Z,101647.66
2022-10-02T18:52:24.708Z,101665.66
2022-10-02T18:55:07.626Z,101662.41
2022-10-02T18:58:08.210Z,101667.13
2022-10-02T19:01:07.895Z,101661.84
2022-10-02T19:04:11.029Z,101649.81
2022-10-02T19:07:00.402Z,101654.97
2022-10-02T19:09:28.452Z,101657.34
2022-10-02T19:11:57.707Z,101657.22
2022-10-02T19:14:34.318Z,101655.19
2022-10-02T19:17:06.098Z,101659.59
2022-10-02T19:19:33.240Z,101651.31
2022-10-02T19:22:25.756Z,101652.16
2022-10-02T19:25:15.928Z,101652.31
2022-10-02T19:27:48.531Z,101658.47
2022-10-02T19:30:32.262Z,101658.47
2022-10-02T19:33:12.410Z,101658.47
2022-10-02T19:35:42.397Z,101650.47
2022-10-02T19:38:24.990Z,101661.19
2022-10-02T19:40:56.228Z,101653.88
2022-10-02T19:43:25.601Z,101663.88
2022-10-02T19:45:56.590Z,101658.47
2022-10-02T19:48:26.930Z,101669.31
2022-10-02T19:50:58.945Z,101662.16
2022-10-02T19:53:25.486Z,101669.31
2022-10-02T19:55:56.290Z,101679.84
2022-10-02T19:58:44.608Z,101669.00
2022-10-02T20:01:23.735Z,101669.13
2022-10-02T20:03:55.491Z,101668.44
2022-10-02T20:06:24.248Z,101671.34
2022-10-02T20:09:03.641Z,101658.91
2022-10-02T20:11:37.870Z,101668.91
2022-10-02T20:14:12.905Z,101668.06
2022-10-02T20:16:58.465Z,101659.06
2022-10-02T20:19:27.913Z,101657.06
2022-10-02T20:21:56.020Z,101664.19
2022-10-02T20:24:37.643Z,101661.31
2022-10-02T20:27:15.714Z,101655.03
2022-10-02T20:29:46.971Z,101653.03
2022-10-02T20:32:21.830Z,101652.69
2022-10-02T20:34:56.830Z,101648.25
2022-10-02T20:37:26.464Z,101647.88
2022-10-02T20:40:13.573Z,101646.81
2022-10-02T20:42:49.810Z,101642.63
2022-10-02T20:45:16.655Z,101642.53
2022-10-02T20:48:00.105Z,101639.88
2022-10-02T20:50:36.077Z,101634.31
2022-10-02T20:53:40.269Z,101635.81
2022-10-02T20:56:26.062Z,101630.22
2022-10-02T20:59:22.453Z,101630.91
2022-10-02T21:01:54.939Z,101632.50
2022-10-02T21:05:09.108Z,101633.03
2022-10-02T21:07:41.328Z,101627.59
2022-10-02T21:13:03.103Z,101630.47
2022-10-02T21:15:46.264Z,101635.22
2022-10-02T21:18:40.014Z,101640.47
2022-10-02T21:21:24.994Z,101643.03
2022-10-02T21:24:18.524Z,101642.19
2022-10-02T21:27:03.411Z,101640.00
2022-10-02T21:29:45.302Z,101640.72
2022-10-02T21:32:35.894Z,101646.16
2022-10-02T21:35:13.321Z,101641.75
2022-10-02T21:37:47.535Z,101639.88
2022-10-02T21:40:51.124Z,101642.44
2022-10-02T21:43:36.103Z,101628.47
2022-10-02T21:46:22.194Z,101638.22
2022-10-02T21:49:16.496Z,101643.41
2022-10-02T21:52:03.986Z,101647.09
2022-10-02T21:55:01.656Z,101642.84
2022-10-02T21:57:33.453Z,101647.41
2022-10-02T22:00:33.116Z,101635.13
2022-10-02T22:03:10.223Z,101645.66
2022-10-02T22:05:59.058Z,101638.53
2022-10-02T22:08:29.891Z,101647.81
2022-10-02T22:11:12.300Z,101639.97
2022-10-02T22:13:40.692Z,101643.84
2022-10-02T22:16:23.542Z,101641.16
2022-10-02T22:19:09.193Z,101646.41
2022-10-02T22:21:47.606Z,101654.84
2022-10-02T22:24:36.056Z,101644.84
2022-10-02T22:27:11.598Z,101650.59
2022-10-02T22:29:45.895Z,101641.75
2022-10-02T22:32:45.023Z,101645.16
2022-10-02T22:35:26.868Z,101634.84
2022-10-02T22:38:12.041Z,101637.72
2022-10-02T22:40:51.190Z,101640.59
2022-10-02T22:43:55.580Z,101640.59
2022-10-02T22:46:44.098Z,101634.69
2022-10-02T22:49:18.721Z,101638.53
2022-10-02T22:52:10.255Z,101637.22
2022-10-02T22:54:46.385Z,101638.22
2022-10-02T22:57:30.429Z,101630.53
2022-10-02T23:00:07.245Z,101631.97
2022-10-02T23:02:57.990Z,101634.84
2022-10-02T23:05:34.944Z,101626.88
2022-10-02T23:08:16.709Z,101622.44
2022-10-02T23:10:46.867Z,101628.31
2022-10-02T23:13:28.409Z,101619.91
2022-10-02T23:16:12.629Z,101621.75
2022-10-02T23:18:43.413Z,101618.88
2022-10-02T23:21:13.003Z,101616.72
2022-10-02T23:24:15.187Z,101611.13
2022-10-02T23:26:49.728Z,101614.41
2022-10-02T23:29:22.402Z,101606.25
2022-10-02T23:32:14.288Z,101609.66
2022-10-02T23:34:42.922Z,101613.69
2022-10-02T23:37:15.504Z,101610.59
2022-10-02T23:39:57.270Z,101609.19
2022-10-02T23:42:26.847Z,101601.97
2022-10-02T23:44:58.059Z,101599.56
2022-10-02T23:47:59.109Z,101598.41
2022-10-02T23:50:37.283Z,101609.94
2022-10-02T23:53:44.607Z,101602.13
2022-10-02T23:56:40.218Z,101602.56
2022-10-02T23:59:32.848Z,101607.59
